Time;durP1;ratioP1;P1;durP2;ratioP2;P2;SDS_P1;SDS_P2;PMS_P1;PMS_P2;Temp;Humidity;BMP_temperature;BMP_pressure;BME280_temperature;BME280_humidity;BME280_pressure;Samples;Min_cycle;Max_cycle;Signal;HPM_P1;HPM_P2
2021/04/08 00:01:34;;;;;;;4.88;3.38;;;;;;;5.56;56.89;99561.31;5050104;28;20025;-50
2021/04/08 00:04:00;;;;;;;4.15;3.00;;;;;;;5.90;55.26;99557.47;5050077;28;20013;-50
2021/04/08 00:06:25;;;;;;;4.35;3.00;;;;;;;5.72;55.46;99563.88;5050206;28;20025;-50
2021/04/08 00:08:51;;;;;;;5.30;3.38;;;;;;;5.80;55.62;99568.25;5049569;28;20045;-52
2021/04/08 00:11:16;;;;;;;6.18;3.50;;;;;;;5.67;56.47;99572.31;5049978;28;20504;-50
2021/04/08 00:13:41;;;;;;;4.53;3.47;;;;;;;5.51;56.33;99568.97;5049854;28;20028;-51
2021/04/08 00:16:07;;;;;;;4.88;3.30;;;;;;;5.52;56.39;99567.97;5050161;28;20024;-49
2021/04/08 00:18:32;;;;;;;7.03;3.58;;;;;;;5.32;56.53;99565.78;5049741;28;20413;-50
2021/04/08 00:20:58;;;;;;;5.65;3.63;;;;;;;4.97;58.04;99573.22;5049854;28;20032;-50
2021/04/08 00:23:24;;;;;;;5.10;3.53;;;;;;;4.85;57.86;99570.09;5049780;28;20425;-50
2021/04/08 00:25:49;;;;;;;5.78;3.78;;;;;;;5.17;58.74;99570.13;5049818;28;20029;-49
2021/04/08 00:28:14;;;;;;;5.65;3.80;;;;;;;5.56;56.57;99561.31;5050230;28;20193;-51
2021/04/08 00:30:43;;;;;;;6.18;3.88;;;;;;;6.30;54.72;99573.97;5049697;28;20493;-51
2021/04/08 00:33:12;;;;;;;5.55;3.78;;;;;;;6.17;55.56;99571.94;5049633;28;20028;-50
2021/04/08 00:35:38;;;;;;;4.97;3.80;;;;;;;5.37;55.90;99567.88;5049694;28;20025;-49
2021/04/08 00:38:03;;;;;;;5.75;3.75;;;;;;;5.34;57.04;99570.88;5049936;28;20182;-49
2021/04/08 00:40:29;;;;;;;5.85;3.88;;;;;;;5.36;56.80;99564.44;5049845;28;20025;-49
2021/04/08 00:42:54;;;;;;;8.25;4.20;;;;;;;4.95;57.67;99567.28;5049826;28;20025;-50
2021/04/08 00:45:20;;;;;;;6.88;3.83;;;;;;;5.02;58.16;99581.41;5049767;28;20437;-52
2021/04/08 00:47:45;;;;;;;6.90;4.20;;;;;;;5.25;57.31;99580.66;5049742;28;20025;-50
2021/04/08 00:50:12;;;;;;;6.50;4.30;;;;;;;5.31;56.62;99579.13;5049418;28;20017;-50
2021/04/08 00:52:37;;;;;;;11.77;4.80;;;;;;;5.67;55.91;99584.69;5049463;28;20040;-53
2021/04/08 00:55:03;;;;;;;8.02;4.35;;;;;;;5.60;55.22;99579.31;5048359;28;20022;-52
2021/04/08 00:57:28;;;;;;;6.32;4.30;;;;;;;5.46;55.71;99586.16;5048385;28;20017;-53
2021/04/08 00:59:55;;;;;;;8.07;4.90;;;;;;;5.26;56.79;99585.75;5049379;28;20051;-53
2021/04/08 01:02:20;;;;;;;8.65;4.50;;;;;;;5.20;56.40;99593.56;5048525;28;20039;-52
2021/04/08 01:04:46;;;;;;;6.38;4.53;;;;;;;5.19;56.97;99591.91;5034561;28;20373;-50
2021/04/08 01:07:11;;;;;;;7.57;4.80;;;;;;;5.46;56.12;99599.34;5052929;28;20401;-52
2021/04/08 01:09:37;;;;;;;7.57;4.50;;;;;;;5.50;56.87;99589.25;5051827;28;20044;-49
2021/04/08 01:12:03;;;;;;;7.22;4.80;;;;;;;5.45;56.55;99592.41;5053014;28;20029;-50
2021/04/08 01:14:28;;;;;;;7.18;4.70;;;;;;;5.53;56.30;99598.66;5053163;28;20047;-52
2021/04/08 01:17:01;;;;;;;7.93;4.50;;;;;;;5.58;56.45;99604.22;5053353;28;20462;-51
2021/04/08 01:19:45;;;;;;;7.25;4.80;;;;;;;5.67;55.84;99611.09;5051535;28;20025;-53
2021/04/08 01:22:44;;;;;;;6.90;4.50;;;;;;;5.94;55.99;99611.56;5052805;28;20040;-49
2021/04/08 01:25:21;;;;;;;6.47;4.57;;;;;;;5.67;55.03;99621.66;5051765;28;20027;-51
2021/04/08 01:28:07;;;;;;;11.02;4.63;;;;;;;5.45;55.43;99615.34;5036098;28;20021;-49
2021/04/08 01:30:59;;;;;;;7.45;5.25;;;;;;;5.45;56.07;99618.00;5051617;28;20029;-50
2021/04/08 01:33:32;;;;;;;7.15;5.07;;;;;;;5.54;56.28;99624.88;5051269;28;20349;-53
2021/04/08 01:36:03;;;;;;;7.00;4.65;;;;;;;5.54;55.44;99626.69;5018471;28;20064;-51
2021/04/08 01:38:33;;;;;;;7.90;4.88;;;;;;;5.48;56.60;99623.75;5051199;28;20196;-50
2021/04/08 01:40:58;;;;;;;;;;;;;;;5.32;56.77;99626.47;5035178;28;20021;-52
2021/04/08 01:43:30;;;;;;;7.75;5.32;;;;;;;6.10;55.49;99624.69;5051388;28;19910;-51
2021/04/08 01:45:57;;;;;;;7.93;5.30;;;;;;;5.84;54.08;99617.91;5035243;28;20032;-50
2021/04/08 01:48:22;;;;;;;7.90;5.03;;;;;;;5.49;55.67;99617.47;5034668;28;20044;-52
2021/04/08 01:50:48;;;;;;;8.43;5.22;;;;;;;5.26;55.58;99633.25;5051265;28;20381;-51
2021/04/08 01:53:14;;;;;;;9.77;5.45;;;;;;;5.11;56.36;99634.16;5050972;28;20100;-51
2021/04/08 01:55:39;;;;;;;8.77;5.50;;;;;;;5.23;57.04;99632.78;5052730;28;20021;-53
2021/04/08 01:58:05;;;;;;;9.32;5.43;;;;;;;5.33;56.12;99636.03;5034727;28;20516;-50
2021/04/08 02:00:30;;;;;;;7.18;5.07;;;;;;;4.92;57.41;99641.44;5051225;28;20032;-50
2021/04/08 02:02:56;;;;;;;8.75;5.80;;;;;;;5.26;57.59;99637.72;5051011;28;20039;-49
2021/04/08 02:05:22;;;;;;;8.90;5.43;;;;;;;5.13;57.67;99629.53;5034468;28;20437;-49
2021/04/08 02:07:48;;;;;;;9.60;5.72;;;;;;;5.11;57.41;99636.78;5034450;28;20095;-51
2021/04/08 02:10:13;;;;;;;11.18;6.38;;;;;;;5.65;56.46;99656.16;5050817;28;20057;-49
2021/04/08 02:12:40;;;;;;;9.70;6.15;;;;;;;5.57;56.75;99655.38;5034373;28;20100;-50
2021/04/08 02:15:06;;;;;;;8.48;5.72;;;;;;;5.16;59.08;99650.25;5034022;28;20017;-53
2021/04/08 02:17:34;;;;;;;8.90;5.63;;;;;;;5.39;59.37;99656.47;5050596;28;20485;-50
2021/04/08 02:19:59;;;;;;;9.55;6.28;;;;;;;5.24;59.66;99642.34;5051057;28;20056;-52
2021/04/08 02:22:25;;;;;;;9.38;6.10;;;;;;;5.27;59.16;99647.25;5034011;28;20469;-53
2021/04/08 02:24:50;;;;;;;10.50;6.47;;;;;;;5.26;61.06;99650.91;5050672;28;20422;-53
2021/04/08 02:27:16;;;;;;;10.00;6.32;;;;;;;5.38;61.22;99669.81;5050592;28;20404;-53
2021/04/08 02:29:41;;;;;;;10.32;6.30;;;;;;;5.05;61.03;99649.66;5034059;28;20021;-49
2021/04/08 02:32:07;;;;;;;9.32;5.88;;;;;;;5.52;60.86;99677.03;5050618;28;20025;-53
2021/04/08 02:34:34;;;;;;;9.07;6.25;;;;;;;5.34;61.11;99677.25;5034339;28;20106;-50
2021/04/08 02:36:59;;;;;;;10.48;6.75;;;;;;;5.35;61.13;99689.47;5050610;28;20031;-50
2021/04/08 02:39:24;;;;;;;9.30;5.90;;;;;;;5.20;60.85;99684.06;5050453;28;20248;-49
2021/04/08 02:41:50;;;;;;;11.32;6.45;;;;;;;4.96;61.25;99681.50;5051443;28;20020;-49
2021/04/08 02:44:16;;;;;;;10.15;6.55;;;;;;;5.70;59.83;99679.41;5051930;28;20028;-49
2021/04/08 02:46:41;;;;;;;10.63;6.25;;;;;;;5.45;60.58;99681.34;5051274;28;20104;-50
2021/04/08 02:49:07;;;;;;;8.80;6.47;;;;;;;5.24;62.55;99677.47;5051187;28;20029;-52
2021/04/08 02:51:38;;;;;;;10.70;6.57;;;;;;;5.15;62.20;99675.84;5049938;28;20028;-53
2021/04/08 02:54:12;;;;;;;10.43;6.82;;;;;;;4.84;62.32;99673.94;5049860;28;20461;-50
2021/04/08 02:56:40;;;;;;;10.73;7.15;;;;;;;4.81;63.48;99679.53;5034166;28;20319;-51
2021/04/08 02:59:22;;;;;;;11.88;6.75;;;;;;;4.74;63.97;99669.84;5033730;28;20029;-52
2021/04/08 03:01:51;;;;;;;10.02;6.60;;;;;;;4.83;63.90;99682.81;5034832;28;20029;-51
2021/04/08 03:04:19;;;;;;;10.55;6.95;;;;;;;4.97;64.12;99696.31;5051460;28;20032;-53
2021/04/08 03:06:45;;;;;;;12.57;7.22;;;;;;;4.86;64.63;99697.50;5033510;28;20124;-52
2021/04/08 03:09:10;;;;;;;11.82;6.70;;;;;;;4.84;64.13;99694.22;5049042;28;20091;-51
2021/04/08 03:11:36;;;;;;;10.57;6.30;;;;;;;4.78;63.50;99694.88;5049794;28;20373;-48
2021/04/08 03:14:08;;;;;;;9.70;6.45;;;;;;;4.84;63.22;99705.59;5050785;28;20155;-53
2021/04/08 03:16:39;;;;;;;10.15;6.55;;;;;;;4.66;63.83;99703.16;5051029;28;20049;-53
2021/04/08 03:19:06;;;;;;;12.60;6.35;;;;;;;4.83;62.74;99713.66;5049940;28;20094;-53
2021/04/08 03:21:31;;;;;;;10.25;6.60;;;;;;;4.55;63.37;99716.66;5051134;28;20021;-50
2021/04/08 03:23:57;;;;;;;10.07;6.30;;;;;;;4.75;63.88;99717.13;5050854;28;20354;-52
2021/04/08 03:26:26;;;;;;;9.25;6.15;;;;;;;4.80;64.37;99729.81;5032145;28;20031;-54
2021/04/08 03:28:52;;;;;;;10.95;6.75;;;;;;;4.92;63.31;99732.94;5049278;28;20029;-53
2021/04/08 03:31:18;;;;;;;11.75;6.43;;;;;;;4.72;63.82;99733.25;5050875;28;20028;-53
2021/04/08 03:33:43;;;;;;;10.57;6.30;;;;;;;4.94;63.64;99750.22;5032837;28;20511;-49
2021/04/08 03:36:09;;;;;;;11.18;6.57;;;;;;;4.96;62.05;99757.97;5050814;28;20025;-49
2021/04/08 03:38:34;;;;;;;9.32;6.47;;;;;;;5.32;61.90;99761.06;5048564;28;20489;-50
2021/04/08 03:41:00;;;;;;;11.52;6.88;;;;;;;6.05;60.95;99759.13;5049284;28;20032;-53
2021/04/08 03:43:26;;;;;;;11.70;7.50;;;;;;;5.36;62.53;99758.91;5049808;28;20089;-50
2021/04/08 03:45:51;;;;;;;14.07;8.30;;;;;;;5.30;62.82;99768.31;5049093;28;20029;-49
2021/04/08 03:48:17;;;;;;;19.48;11.27;;;;;;;5.41;63.84;99770.59;5049137;28;20452;-51
2021/04/08 03:50:42;;;;;;;20.58;13.07;;;;;;;5.33;63.63;99762.72;5049147;28;20029;-49
2021/04/08 03:53:09;;;;;;;18.05;12.10;;;;;;;5.03;65.17;99765.06;5049249;28;20025;-49
2021/04/08 03:55:34;;;;;;;22.33;13.10;;;;;;;5.32;65.73;99761.06;5032751;28;20116;-50
2021/04/08 03:58:00;;;;;;;19.45;12.15;;;;;;;6.79;71.71;99779.78;5029211;28;20064;-50
2021/04/08 04:00:26;;;;;;;19.15;11.93;;;;;;;8.07;62.41;99778.75;5029297;28;20037;-51
2021/04/08 04:02:51;;;;;;;11.80;8.43;;;;;;;8.84;63.19;99790.59;5029090;28;20030;-51
2021/04/08 04:05:16;;;;;;;13.50;8.88;;;;;;;9.58;59.05;99784.78;5037893;28;20037;-50
2021/04/08 04:07:49;;;;;;;11.80;8.02;;;;;;;10.12;55.20;99788.50;5038963;28;20021;-52
2021/04/08 04:10:14;;;;;;;14.60;8.38;;;;;;;10.27;51.68;99801.66;5039976;28;20080;-49
2021/04/08 04:12:40;;;;;;;12.90;8.45;;;;;;;10.21;50.76;99799.78;5040117;28;20055;-52
2021/04/08 04:15:06;;;;;;;11.65;7.82;;;;;;;10.05;49.67;99802.78;5038382;28;20041;-52
2021/04/08 04:17:32;;;;;;;14.88;8.05;;;;;;;9.74;49.98;99806.72;5039920;28;20020;-53
2021/04/08 04:19:58;;;;;;;8.75;6.20;;;;;;;8.90;47.43;99803.09;5041229;28;20056;-50
2021/04/08 04:22:23;;;;;;;8.50;5.85;;;;;;;9.00;48.47;99808.06;5039239;28;20021;-52
2021/04/08 04:24:49;;;;;;;29.08;17.15;;;;;;;8.92;48.21;99811.69;5038500;28;20036;-49
2021/04/08 04:27:15;;;;;;;58.17;31.73;;;;;;;8.70;48.51;99818.00;5040658;28;20025;-50
2021/04/08 04:29:40;;;;;;;18.48;10.15;;;;;;;8.46;49.50;99820.00;5038863;28;20056;-49
2021/04/08 04:32:12;;;;;;;24.25;12.40;;;;;;;8.47;49.53;99821.63;5040475;28;20029;-48
2021/04/08 04:34:45;;;;;;;10.88;7.70;;;;;;;8.69;49.22;99824.31;5040743;28;20442;-50
2021/04/08 04:37:11;;;;;;;9.80;6.55;;;;;;;8.52;48.48;99827.22;5040993;28;20258;-49
2021/04/08 04:39:36;;;;;;;10.57;5.95;;;;;;;8.45;48.36;99821.00;5043336;28;20116;-50
2021/04/08 04:42:03;;;;;;;9.98;6.68;;;;;;;8.57;47.61;99829.31;5041844;28;20091;-49
2021/04/08 04:44:28;;;;;;;9.10;6.18;;;;;;;8.41;50.73;99825.91;5043720;28;20021;-49
2021/04/08 04:46:55;;;;;;;11.40;7.35;;;;;;;8.47;47.51;99819.00;5045070;28;20056;-51
2021/04/08 04:49:21;;;;;;;23.45;13.18;;;;;;;8.43;50.27;99830.16;5043773;28;20102;-51
2021/04/08 04:51:46;;;;;;;13.45;8.27;;;;;;;8.61;53.17;99834.03;5043543;28;20025;-52
2021/04/08 04:54:12;;;;;;;10.18;6.68;;;;;;;8.99;50.32;99833.78;5043579;28;20445;-52
2021/04/08 04:56:37;;;;;;;9.88;6.75;;;;;;;9.12;49.41;99826.94;5044726;28;20088;-50
2021/04/08 04:59:03;;;;;;;9.50;5.65;;;;;;;8.67;48.15;99842.28;5042854;28;20030;-47
2021/04/08 05:01:28;;;;;;;10.35;6.28;;;;;;;8.45;48.17;99844.06;5043726;28;20115;-49
2021/04/08 05:03:54;;;;;;;10.18;6.25;;;;;;;8.61;48.35;99844.66;5044422;28;20120;-50
2021/04/08 05:06:21;;;;;;;15.15;6.32;;;;;;;8.61;47.36;99847.31;5042501;28;20496;-52
2021/04/08 05:08:47;;;;;;;11.85;6.75;;;;;;;7.96;51.31;99850.81;5043929;28;20083;-50
2021/04/08 05:11:12;;;;;;;16.65;9.77;;;;;;;7.94;48.22;99858.94;5044020;28;20396;-49
2021/04/08 05:13:38;;;;;;;18.55;9.35;;;;;;;7.92;49.31;99853.00;5042498;28;20105;-53
2021/04/08 05:16:03;;;;;;;10.23;5.97;;;;;;;7.60;49.57;99854.97;5043834;28;20515;-52
2021/04/08 05:18:30;;;;;;;18.45;9.10;;;;;;;7.58;50.01;99850.88;5043260;28;20042;-52
2021/04/08 05:20:56;;;;;;;14.93;9.43;;;;;;;7.28;52.10;99847.34;5042483;28;20094;-52
2021/04/08 05:23:22;;;;;;;10.55;7.10;;;;;;;7.14;50.16;99851.59;5042933;28;20057;-50
2021/04/08 05:25:48;;;;;;;11.07;6.35;;;;;;;7.10;51.33;99850.31;5042825;28;20065;-49
2021/04/08 05:28:13;;;;;;;12.43;6.45;;;;;;;6.94;50.33;99867.16;5042770;28;20445;-53
2021/04/08 05:30:39;;;;;;;11.60;6.22;;;;;;;7.44;53.26;99869.22;5044176;28;20021;-51
2021/04/08 05:33:05;;;;;;;10.98;6.57;;;;;;;7.71;50.41;99861.66;5042223;28;20029;-50
2021/04/08 05:35:30;;;;;;;12.48;6.38;;;;;;;7.75;50.84;99873.53;5042994;28;20019;-52
2021/04/08 05:37:55;;;;;;;13.57;7.07;;;;;;;7.64;48.14;99880.09;5043677;28;20029;-50
2021/04/08 05:40:21;;;;;;;11.68;6.93;;;;;;;7.21;49.73;99874.53;5038481;28;20036;-50
2021/04/08 05:42:46;;;;;;;15.40;6.78;;;;;;;7.26;50.06;99875.84;5043652;28;20524;-49
2021/04/08 05:45:13;;;;;;;14.82;6.97;;;;;;;7.43;50.00;99880.78;5052243;28;20073;-53
2021/04/08 05:47:39;;;;;;;12.27;6.75;;;;;;;7.20;49.90;99885.31;5052309;28;20154;-52
2021/04/08 05:50:05;;;;;;;14.05;6.85;;;;;;;7.20;50.28;99893.25;5051765;28;20465;-51
2021/04/08 05:52:30;;;;;;;15.43;7.60;;;;;;;7.20;50.02;99885.31;5052472;28;20096;-51
2021/04/08 05:54:56;;;;;;;12.00;7.07;;;;;;;7.01;51.34;99899.84;5052053;28;20017;-53
2021/04/08 05:57:21;;;;;;;13.43;6.97;;;;;;;6.53;50.52;99897.31;5052126;28;20044;-52
2021/04/08 05:59:47;;;;;;;12.05;6.38;;;;;;;7.12;50.73;99904.72;5051513;28;20040;-50
2021/04/08 06:02:12;;;;;;;11.88;6.43;;;;;;;7.14;50.30;99899.22;5051861;28;20036;-51
2021/04/08 06:04:38;;;;;;;14.50;7.15;;;;;;;7.12;52.05;99904.72;5050171;28;20068;-50
2021/04/08 06:07:03;;;;;;;15.50;6.75;;;;;;;7.35;51.87;99909.16;5051933;28;20017;-52
2021/04/08 06:09:28;;;;;;;10.75;6.93;;;;;;;7.19;52.88;99905.63;5051351;28;20053;-51
2021/04/08 06:11:54;;;;;;;16.45;7.10;;;;;;;7.68;49.24;99906.25;5051815;28;20075;-53
2021/04/08 06:14:19;;;;;;;15.52;8.00;;;;;;;8.01;50.04;99896.94;5051667;28;20082;-54
2021/04/08 06:16:45;;;;;;;11.10;5.93;;;;;;;7.97;48.97;99900.94;5051852;28;20091;-50
2021/04/08 06:19:10;;;;;;;31.98;19.13;;;;;;;8.06;49.30;99883.13;5051496;28;20434;-50
2021/04/08 06:21:39;;;;;;;15.30;7.82;;;;;;;7.66;47.56;99879.91;5050970;28;20032;-52
2021/04/08 06:24:07;;;;;;;9.63;6.33;;;;;;;7.57;48.03;99887.13;5051619;28;20469;-52
2021/04/08 06:26:32;;;;;;;10.40;5.93;;;;;;;7.91;47.15;99896.38;5051673;28;20358;-50
2021/04/08 06:28:58;;;;;;;10.20;6.40;;;;;;;8.14;47.84;99898.13;5051698;28;20695;-49
2021/04/08 06:31:23;;;;;;;12.25;6.45;;;;;;;8.77;46.92;99894.00;5051683;28;20470;-53
2021/04/08 06:33:48;;;;;;;11.07;6.18;;;;;;;9.29;44.80;99899.19;5051496;28;20099;-53
2021/04/08 06:36:14;;;;;;;8.80;6.10;;;;;;;8.96;45.00;99894.41;5051475;28;20139;-55
2021/04/08 06:38:39;;;;;;;13.18;6.63;;;;;;;9.04;45.56;99898.75;5051222;28;20025;-50
2021/04/08 06:41:05;;;;;;;12.38;6.07;;;;;;;9.02;45.00;99900.78;5051008;28;20040;-53
2021/04/08 06:43:31;;;;;;;12.70;6.95;;;;;;;9.20;46.84;99904.63;5051002;28;20035;-53
2021/04/08 06:45:57;;;;;;;10.10;6.38;;;;;;;9.23;44.27;99905.28;5050969;28;20103;-50
2021/04/08 06:48:28;;;;;;;12.75;6.80;;;;;;;9.54;44.35;99899.63;5049796;28;20060;-52
2021/04/08 06:50:54;;;;;;;9.52;6.03;;;;;;;9.57;44.85;99923.13;5050856;28;20381;-51
2021/04/08 06:53:19;;;;;;;10.18;6.38;;;;;;;9.90;44.31;99922.53;5042198;28;20060;-53
2021/04/08 06:55:46;;;;;;;9.20;5.85;;;;;;;8.80;44.79;99929.97;5023271;28;20025;-52
2021/04/08 06:58:12;;;;;;;10.23;6.07;;;;;;;9.19;44.86;99931.38;5035105;28;20029;-52
2021/04/08 07:00:37;;;;;;;10.07;5.80;;;;;;;8.95;44.49;99930.75;5029378;28;20033;-52
2021/04/08 07:03:04;;;;;;;13.55;5.90;;;;;;;8.54;45.64;99923.34;5028549;28;20029;-52
2021/04/08 07:05:29;;;;;;;10.98;5.82;;;;;;;9.40;45.36;99930.53;5029437;28;20322;-53
2021/04/08 07:07:55;;;;;;;9.80;6.25;;;;;;;9.47;44.40;99936.75;5029709;28;20135;-51
2021/04/08 07:10:20;;;;;;;8.93;5.40;;;;;;;9.14;44.12;99939.09;5029296;28;20049;-50
2021/04/08 07:12:46;;;;;;;10.02;5.63;;;;;;;9.26;44.48;99950.84;5029324;28;20267;-52
2021/04/08 07:15:12;;;;;;;10.82;6.40;;;;;;;9.14;44.32;99944.41;5012202;28;20060;-52
2021/04/08 07:17:37;;;;;;;10.40;6.10;;;;;;;9.70;42.70;99955.13;5028315;28;20147;-52
2021/04/08 07:20:03;;;;;;;11.85;5.18;;;;;;;9.76;41.96;99961.50;5031260;28;20029;-53
2021/04/08 07:22:29;;;;;;;8.52;5.45;;;;;;;9.89;42.41;99958.94;5049394;28;20503;-51
2021/04/08 07:24:55;;;;;;;7.93;5.63;;;;;;;10.05;42.41;99972.94;5049021;28;20045;-50
2021/04/08 07:27:22;;;;;;;9.98;5.85;;;;;;;10.03;42.20;99978.47;5049293;28;20029;-52
2021/04/08 07:30:00;;;;;;;14.30;6.97;;;;;;;9.87;42.63;99984.09;5049168;28;20059;-51
2021/04/08 07:32:33;;;;;;;13.30;6.95;;;;;;;9.49;43.23;99987.03;5049347;28;20124;-49
2021/04/08 07:35:00;;;;;;;16.25;9.35;;;;;;;9.77;43.43;99987.91;5049236;28;20041;-52
2021/04/08 07:37:31;;;;;;;12.20;7.60;;;;;;;9.89;42.92;99982.06;5048940;28;20029;-51
2021/04/08 07:39:57;;;;;;;11.38;6.50;;;;;;;10.09;42.02;99983.03;5049206;28;20180;-53
2021/04/08 07:42:29;;;;;;;8.60;5.70;;;;;;;9.74;42.08;99993.59;5048948;28;20043;-52
2021/04/08 07:44:59;;;;;;;9.10;5.97;;;;;;;9.70;42.17;100008.28;5048679;28;20025;-51
2021/04/08 07:47:26;;;;;;;8.60;5.22;;;;;;;9.54;43.00;100000.56;5049074;28;20094;-52
2021/04/08 07:49:53;;;;;;;10.30;5.38;;;;;;;9.41;42.03;100001.25;5049105;28;20032;-50
2021/04/08 07:52:39;;;;;;;8.93;5.60;;;;;;;9.44;43.19;99987.59;5049068;28;20029;-48
2021/04/08 07:55:12;;;;;;;16.27;6.25;;;;;;;8.82;44.55;99994.28;5048992;28;20032;-49
2021/04/08 07:58:00;;;;;;;9.20;5.60;;;;;;;8.60;44.43;99993.41;5048784;28;20029;-52
2021/04/08 08:00:28;;;;;;;11.85;6.18;;;;;;;8.62;45.33;99999.34;5049500;28;20031;-54
2021/04/08 08:02:54;;;;;;;15.20;6.80;;;;;;;9.41;44.37;100003.09;5048899;28;20021;-53
2021/04/08 08:05:22;;;;;;;11.45;6.50;;;;;;;9.76;43.50;99991.56;5048930;28;20025;-50
2021/04/08 08:07:47;;;;;;;10.52;5.53;;;;;;;9.50;42.80;100007.25;5049534;28;20048;-52
2021/04/08 08:10:17;;;;;;;11.95;5.72;;;;;;;9.74;42.67;100014.84;5049450;28;20348;-52
2021/04/08 08:12:43;;;;;;;9.65;5.70;;;;;;;9.51;42.35;100020.34;5049484;28;20021;-53
2021/04/08 08:15:22;;;;;;;13.25;5.80;;;;;;;9.04;42.58;100023.53;5048543;28;20485;-53
2021/04/08 08:17:48;;;;;;;9.85;6.00;;;;;;;9.13;42.99;100027.72;5049690;28;20496;-51
2021/04/08 08:20:14;;;;;;;9.00;5.90;;;;;;;9.07;43.19;100044.41;5049409;28;20017;-53
2021/04/08 08:22:40;;;;;;;11.82;6.07;;;;;;;9.46;42.08;100048.50;5049678;28;20046;-50
2021/04/08 08:25:06;;;;;;;37.53;18.50;;;;;;;9.60;42.55;100039.66;5049509;28;20029;-52
2021/04/08 08:27:47;;;;;;;20.17;9.63;;;;;;;9.90;42.44;100035.03;5049266;28;20021;-52
2021/04/08 08:30:30;;;;;;;10.82;5.95;;;;;;;9.01;42.85;100035.34;5049384;28;20024;-38
2021/04/08 08:33:09;;;;;;;9.93;5.47;;;;;;;8.67;43.23;100038.59;5049915;28;20047;-38
2021/04/08 08:35:34;;;;;;;8.05;5.55;;;;;;;9.00;42.83;100042.50;5049350;28;20100;-38
2021/04/08 08:38:17;;;;;;;8.57;5.10;;;;;;;9.42;41.27;100042.75;5049441;28;20412;-37
2021/04/08 08:40:44;;;;;;;11.57;6.03;;;;;;;9.27;41.47;100045.47;5049376;28;20101;-38
2021/04/08 08:43:10;;;;;;;13.50;6.00;;;;;;;9.15;41.96;100042.44;5048596;28;20028;-38
2021/04/08 08:45:35;;;;;;;8.13;5.45;;;;;;;9.53;40.90;100060.03;5049055;28;20500;-38
2021/04/08 08:48:03;;;;;;;8.55;5.50;;;;;;;9.66;40.97;100064.66;5049296;28;20021;-38
2021/04/08 08:50:29;;;;;;;9.95;5.85;;;;;;;9.54;40.98;100059.03;5048987;28;20021;-38
2021/04/08 08:52:54;;;;;;;12.30;5.90;;;;;;;9.42;41.34;100071.97;5047559;28;20442;-38
2021/04/08 08:55:21;;;;;;;15.20;6.63;;;;;;;9.55;41.26;100065.97;5049257;28;20082;-39
2021/04/08 08:57:52;;;;;;;11.05;6.03;;;;;;;9.41;41.65;100062.38;5047556;28;20059;-38
2021/04/08 09:00:18;;;;;;;10.98;5.93;;;;;;;9.59;40.85;100065.41;5047508;28;20083;-37
2021/04/08 09:02:44;;;;;;;9.57;6.00;;;;;;;9.87;41.63;100064.66;5048463;28;20032;-38
2021/04/08 09:05:16;;;;;;;9.13;5.05;;;;;;;9.88;39.54;100052.16;5048341;28;20052;-38
2021/04/08 09:07:43;;;;;;;9.75;5.82;;;;;;;10.59;38.82;100051.31;5031992;28;20032;-38
2021/04/08 09:10:10;;;;;;;8.30;5.60;;;;;;;10.82;38.26;100059.00;5030450;28;20110;-38
2021/04/08 09:12:36;;;;;;;13.77;6.10;;;;;;;11.03;37.78;100061.53;5047094;28;20052;-38
2021/04/08 09:15:04;;;;;;;10.73;5.35;;;;;;;11.12;37.86;100062.22;5047421;28;20025;-38
2021/04/08 09:17:45;;;;;;;10.63;5.30;;;;;;;11.47;36.97;100068.25;5049140;28;20028;-38
2021/04/08 09:20:20;;;;;;;6.60;4.50;;;;;;;11.62;36.59;100060.09;5049284;28;20107;-38
2021/04/08 09:23:13;;;;;;;7.93;4.63;;;;;;;11.96;35.32;100068.97;5048701;28;20037;-39
2021/04/08 09:25:56;;;;;;;5.95;4.20;;;;;;;11.51;35.02;100061.47;5051801;28;20380;-39
2021/04/08 09:28:21;;;;;;;8.02;3.95;;;;;;;11.09;35.98;100049.28;5052488;28;20025;-39
2021/04/08 09:30:59;;;;;;;6.88;4.20;;;;;;;10.95;35.18;100065.19;5052517;28;20040;-38
2021/04/08 09:33:43;;;;;;;6.00;3.88;;;;;;;11.06;34.79;100070.97;5052530;28;20404;-38
2021/04/08 09:36:21;;;;;;;7.88;3.95;;;;;;;10.46;36.19;100074.13;5052494;28;20119;-37
2021/04/08 09:38:49;;;;;;;7.40;3.95;;;;;;;10.58;36.34;100063.75;5052187;28;20488;-36
2021/04/08 09:41:15;;;;;;;5.55;3.90;;;;;;;10.68;36.71;100074.06;5052308;28;20040;-37
2021/04/08 09:43:40;;;;;;;13.27;7.35;;;;;;;11.10;35.85;100072.22;5051940;28;20048;-37
2021/04/08 09:46:13;;;;;;;16.27;8.52;;;;;;;11.74;35.42;100073.63;5051791;28;20021;-37
2021/04/08 09:49:00;;;;;;;7.45;4.03;;;;;;;11.71;34.93;100077.53;5038852;28;20025;-38
2021/04/08 09:51:28;;;;;;;6.15;4.13;;;;;;;11.03;36.35;100084.69;5031991;28;20481;-37
2021/04/08 09:53:53;;;;;;;7.13;4.50;;;;;;;10.74;36.95;100084.75;5032047;28;20021;-37
2021/04/08 09:56:19;;;;;;;7.70;4.60;;;;;;;10.80;37.10;100080.50;5031830;28;20104;-37
2021/04/08 09:58:47;;;;;;;6.63;4.22;;;;;;;11.03;37.39;100084.69;5031564;28;20032;-38
2021/04/08 10:01:12;;;;;;;8.20;4.25;;;;;;;10.78;38.05;100081.72;5014291;28;20041;-38
2021/04/08 10:03:39;;;;;;;8.15;3.97;;;;;;;10.28;38.69;100095.88;5031909;28;20028;-38
2021/04/08 10:06:15;;;;;;;5.28;3.70;;;;;;;10.44;39.25;100086.00;5030958;28;20378;-38
2021/04/08 10:08:40;;;;;;;8.68;4.28;;;;;;;10.17;39.17;100091.09;5031148;28;20452;-38
2021/04/08 10:11:06;;;;;;;5.68;4.20;;;;;;;10.14;39.66;100089.63;5031538;28;20036;-37
2021/04/08 10:13:32;;;;;;;6.00;3.75;;;;;;;9.89;40.17;100107.00;5030065;28;20509;-38
2021/04/08 10:16:00;;;;;;;7.60;3.95;;;;;;;9.67;40.95;100107.00;5031596;28;20071;-38
2021/04/08 10:18:27;;;;;;;6.40;4.18;;;;;;;10.07;41.12;100112.69;5031949;28;20361;-38
2021/04/08 10:20:55;;;;;;;7.30;4.18;;;;;;;9.87;41.56;100109.84;5031921;28;20095;-38
2021/04/08 10:23:36;;;;;;;5.82;3.92;;;;;;;9.68;41.90;100113.94;5031528;28;20116;-38
2021/04/08 10:26:06;;;;;;;6.82;4.35;;;;;;;10.15;40.93;100119.72;5031461;28;20454;-37
2021/04/08 10:28:39;;;;;;;9.85;4.00;;;;;;;10.47;40.80;100105.06;5031660;28;20366;-38
2021/04/08 10:31:23;;;;;;;7.00;4.18;;;;;;;10.84;40.37;100103.03;5031668;28;20033;-38
2021/04/08 10:33:51;;;;;;;9.98;4.85;;;;;;;11.45;39.84;100112.13;5031302;28;20413;-38
2021/04/08 10:36:38;;;;;;;7.50;4.32;;;;;;;11.19;38.58;100110.97;5031008;28;20096;-38
2021/04/08 10:39:07;;;;;;;7.10;4.15;;;;;;;10.99;40.10;100123.41;5031247;28;20099;-38
2021/04/08 10:41:33;;;;;;;6.03;4.10;;;;;;;10.46;40.78;100127.34;5030914;28;20440;-37
2021/04/08 10:44:23;;;;;;;6.90;4.50;;;;;;;10.73;40.30;100131.00;5030686;28;20485;-39
2021/04/08 10:46:50;;;;;;;5.32;4.25;;;;;;;10.96;40.16;100125.41;5030956;28;20041;-39
2021/04/08 10:49:29;;;;;;;7.13;4.18;;;;;;;11.33;40.85;100120.69;5048596;28;20106;-38
2021/04/08 10:51:55;;;;;;;7.68;4.85;;;;;;;11.27;40.04;100117.97;5050677;28;20053;-38
2021/04/08 10:54:31;;;;;;;11.43;4.70;;;;;;;11.39;39.98;100118.25;5050287;28;20127;-38
2021/04/08 10:56:57;;;;;;;8.38;4.45;;;;;;;11.17;40.77;100128.19;5050572;28;20021;-38
2021/04/08 10:59:23;;;;;;;10.35;4.60;;;;;;;11.26;39.47;100116.34;5049361;28;20035;-38
2021/04/08 11:01:49;;;;;;;8.32;4.53;;;;;;;10.69;40.11;100120.97;5050824;28;20040;-38
2021/04/08 11:04:15;;;;;;;11.85;6.60;;;;;;;10.79;40.70;100118.75;5050507;28;20092;-37
2021/04/08 11:06:40;;;;;;;7.28;4.25;;;;;;;11.08;40.14;100114.22;5050443;28;20075;-38
2021/04/08 11:09:06;;;;;;;9.25;5.30;;;;;;;11.52;39.42;100112.97;5050626;28;20056;-38
2021/04/08 11:11:32;;;;;;;5.80;4.03;;;;;;;11.90;38.57;100123.94;5050466;28;20024;-38
2021/04/08 11:13:57;;;;;;;5.90;4.13;;;;;;;11.61;38.36;100118.91;5051066;28;20096;-38
2021/04/08 11:16:23;;;;;;;9.50;4.47;;;;;;;11.32;39.05;100110.22;5050711;28;20477;-38
2021/04/08 11:18:48;;;;;;;8.45;4.20;;;;;;;11.60;39.02;100120.78;5032831;28;20021;-38
2021/04/08 11:21:14;;;;;;;11.90;4.25;;;;;;;11.90;38.25;100115.94;5049376;28;20032;-37
2021/04/08 11:23:39;;;;;;;5.78;4.13;;;;;;;11.84;37.67;100108.72;5049787;28;20025;-39
2021/04/08 11:26:08;;;;;;;4.75;3.50;;;;;;;11.48;37.25;100117.03;5031934;28;20033;-39
2021/04/08 11:28:41;;;;;;;6.50;3.70;;;;;;;11.49;37.35;100108.03;5050235;28;20504;-39
2021/04/08 11:31:19;;;;;;;6.18;3.55;;;;;;;11.93;37.01;100109.38;5050021;28;20488;-38
2021/04/08 11:33:44;;;;;;;8.25;3.53;;;;;;;11.99;36.13;100105.06;5050502;28;20100;-38
2021/04/08 11:36:20;;;;;;;7.35;4.00;;;;;;;11.97;36.10;100110.59;5049987;28;20417;-38
2021/04/08 11:38:46;;;;;;;4.85;3.35;;;;;;;12.41;36.01;100111.84;5049928;28;20382;-38